createdAt,value
2023-04-11T00:00:43.958Z,10.68
2023-04-11T00:01:43.993Z,10.74
2023-04-11T00:02:44.130Z,10.73
2023-04-11T00:03:44.111Z,10.74
2023-04-11T00:04:44.054Z,10.78
2023-04-11T00:05:43.895Z,10.70
2023-04-11T00:06:43.894Z,10.74
2023-04-11T00:07:43.883Z,10.73
2023-04-11T00:08:43.862Z,10.77
2023-04-11T00:09:43.848Z,10.80
2023-04-11T00:10:45.638Z,10.80
2023-04-11T00:11:43.811Z,10.78
2023-04-11T00:12:43.808Z,10.73
2023-04-11T00:13:43.790Z,10.70
2023-04-11T00:14:43.781Z,10.78
2023-04-11T00:15:43.799Z,10.70
2023-04-11T00:16:43.829Z,10.76
2023-04-11T00:17:43.792Z,10.76
2023-04-11T00:18:43.737Z,10.78
2023-04-11T00:19:43.720Z,10.78
2023-04-11T00:20:43.740Z,10.74
2023-04-11T00:21:43.706Z,10.70
2023-04-11T00:22:43.722Z,10.71
2023-04-11T00:23:43.697Z,10.73
2023-04-11T00:24:43.682Z,10.80
2023-04-11T00:25:43.716Z,10.81
2023-04-11T00:26:43.642Z,10.77
2023-04-11T00:27:43.648Z,10.76
2023-04-11T00:28:43.620Z,10.65
2023-04-11T00:29:43.630Z,10.73
2023-04-11T00:30:43.607Z,10.80
2023-04-11T00:31:43.643Z,10.74
2023-04-11T00:32:43.612Z,10.80
2023-04-11T00:33:43.577Z,10.81
2023-04-11T00:34:43.562Z,10.74
2023-04-11T00:35:43.569Z,10.78
2023-04-11T00:36:43.668Z,10.86
2023-04-11T00:37:43.538Z,10.80
2023-04-11T00:38:43.524Z,10.76
2023-04-11T00:39:43.517Z,10.80
2023-04-11T00:40:43.479Z,10.78
2023-04-11T00:41:43.531Z,10.73
2023-04-11T00:42:43.465Z,10.74
2023-04-11T00:43:43.464Z,10.77
2023-04-11T00:44:43.437Z,10.84
2023-04-11T00:45:43.513Z,10.76
2023-04-11T00:46:45.528Z,10.77
2023-04-11T00:47:43.468Z,10.70
2023-04-11T00:48:43.386Z,10.83
2023-04-11T00:49:43.394Z,10.74
2023-04-11T00:50:43.379Z,10.77
2023-04-11T00:51:43.399Z,10.76
2023-04-11T00:52:43.354Z,10.76
2023-04-11T00:53:43.334Z,10.77
2023-04-11T00:54:43.348Z,10.77
2023-04-11T00:55:43.310Z,10.80
2023-04-11T00:56:43.313Z,10.91
2023-04-11T00:57:43.304Z,10.80
2023-04-11T00:58:43.274Z,10.76
2023-04-11T00:59:43.295Z,10.80
2023-04-11T01:00:43.248Z,10.95
2023-04-11T01:01:43.482Z,10.91
2023-04-11T01:02:43.726Z,10.94
2023-04-11T01:03:43.319Z,10.91
2023-04-11T01:04:43.232Z,10.98
2023-04-11T01:05:43.230Z,10.91
2023-04-11T01:06:43.192Z,11.01
2023-04-11T01:07:43.190Z,10.96
2023-04-11T01:08:43.166Z,10.99
2023-04-11T01:09:43.252Z,10.99
2023-04-11T01:10:43.164Z,11.09
2023-04-11T01:11:43.146Z,10.98
2023-04-11T01:12:43.133Z,11.02
2023-04-11T01:13:43.117Z,11.11
2023-04-11T01:14:43.137Z,11.09
2023-04-11T01:15:43.102Z,11.03
2023-04-11T01:16:43.113Z,11.14
2023-04-11T01:17:43.095Z,11.09
2023-04-11T01:18:43.073Z,11.17
2023-04-11T01:19:43.087Z,11.20
2023-04-11T01:20:43.029Z,11.03
2023-04-11T01:21:43.040Z,11.11
2023-04-11T01:22:43.031Z,11.03
2023-04-11T01:23:43.014Z,11.11
2023-04-11T01:24:43.010Z,11.27
2023-04-11T01:25:42.981Z,11.09
2023-04-11T01:26:43.015Z,11.11
2023-04-11T01:27:42.964Z,11.13
2023-04-11T01:28:42.942Z,11.09
2023-04-11T01:29:42.962Z,11.11
2023-04-11T01:30:42.958Z,11.03
2023-04-11T01:31:42.924Z,11.07
2023-04-11T01:32:42.907Z,11.01
2023-04-11T01:33:42.891Z,10.95
2023-04-11T01:34:42.879Z,10.98
2023-04-11T01:35:42.908Z,10.95
2023-04-11T01:36:42.887Z,11.07
2023-04-11T01:37:42.886Z,11.03
2023-04-11T01:38:42.838Z,10.91
2023-04-11T01:39:42.828Z,10.95
2023-04-11T01:40:42.815Z,10.98
2023-04-11T01:41:42.825Z,10.88
2023-04-11T01:42:42.867Z,11.01
2023-04-11T01:43:42.783Z,10.88
2023-04-11T01:44:42.754Z,10.91
2023-04-11T01:45:42.763Z,10.94
2023-04-11T01:46:42.861Z,10.99
2023-04-11T01:47:42.797Z,10.84
2023-04-11T01:48:42.820Z,10.83
2023-04-11T01:49:42.701Z,10.88
2023-04-11T01:50:42.700Z,10.88
2023-04-11T01:51:42.695Z,10.88
2023-04-11T01:52:42.693Z,10.80
2023-04-11T01:53:42.672Z,10.84
2023-04-11T01:54:42.653Z,10.92
2023-04-11T01:55:42.646Z,10.80
2023-04-11T01:56:42.616Z,10.80
2023-04-11T01:57:42.676Z,10.86
2023-04-11T01:58:42.616Z,10.81
2023-04-11T01:59:42.589Z,10.88
2023-04-11T02:00:42.577Z,10.83
2023-04-11T02:01:42.665Z,10.76
2023-04-11T02:02:42.729Z,10.78
2023-04-11T02:03:42.604Z,10.84
2023-04-11T02:04:42.541Z,10.71
2023-04-11T02:05:42.539Z,10.70
2023-04-11T02:06:42.516Z,10.83
2023-04-11T02:07:42.528Z,10.70
2023-04-11T02:08:42.504Z,10.70
2023-04-11T02:09:42.477Z,10.78
2023-04-11T02:10:42.459Z,10.77
2023-04-11T02:11:42.468Z,10.65
2023-04-11T02:12:42.448Z,10.59
2023-04-11T02:13:42.455Z,10.59
2023-04-11T02:14:42.454Z,10.63
2023-04-11T02:15:42.485Z,10.62
2023-04-11T02:16:42.403Z,10.62
2023-04-11T02:17:42.450Z,10.68
2023-04-11T02:18:42.369Z,10.70
2023-04-11T02:19:42.396Z,10.65
2023-04-11T02:20:42.348Z,10.60
2023-04-11T02:21:42.382Z,10.66
2023-04-11T02:22:42.346Z,10.66
2023-04-11T02:23:42.332Z,10.70
2023-04-11T02:24:42.302Z,10.62
2023-04-11T02:25:42.294Z,10.73
2023-04-11T02:26:42.318Z,10.59
2023-04-11T02:27:42.287Z,10.65
2023-04-11T02:28:42.262Z,10.51
2023-04-11T02:29:42.260Z,10.52
2023-04-11T02:30:42.309Z,10.51
2023-04-11T02:31:42.341Z,10.56
2023-04-11T02:32:42.254Z,10.47
2023-04-11T02:33:42.206Z,10.58
2023-04-11T02:34:42.194Z,10.62
2023-04-11T02:35:42.209Z,10.43
2023-04-11T02:36:42.190Z,10.62
2023-04-11T02:37:42.169Z,10.47
2023-04-11T02:38:42.139Z,10.51
2023-04-11T02:39:42.135Z,10.52
2023-04-11T02:40:42.116Z,10.53
2023-04-11T02:41:42.126Z,10.55
2023-04-11T02:42:42.118Z,10.62
2023-04-11T02:43:42.104Z,10.59
2023-04-11T02:44:42.084Z,10.55
2023-04-11T02:45:42.063Z,10.55
2023-04-11T02:46:42.128Z,10.55
2023-04-11T02:47:42.169Z,10.44
2023-04-11T02:48:42.058Z,10.60
2023-04-11T02:49:42.022Z,10.46
2023-04-11T02:50:42.017Z,10.44
2023-04-11T02:51:42.013Z,10.62
2023-04-11T02:52:42.009Z,10.55
2023-04-11T02:53:42.007Z,10.52
2023-04-11T02:54:41.961Z,10.63
2023-04-11T02:55:41.958Z,10.55
2023-04-11T02:56:41.948Z,10.66
2023-04-11T02:57:41.941Z,10.55
2023-04-11T02:58:42.236Z,10.63
2023-04-11T02:59:41.956Z,10.65
2023-04-11T03:00:41.913Z,10.46
2023-04-11T03:01:42.006Z,10.58
2023-04-11T03:02:42.161Z,10.37
2023-04-11T03:03:41.934Z,10.56
2023-04-11T03:04:41.852Z,10.51
2023-04-11T03:05:41.873Z,10.52
2023-04-11T03:06:41.824Z,10.40
2023-04-11T03:07:41.815Z,10.51
2023-04-11T03:08:41.801Z,10.59
2023-04-11T03:09:41.816Z,10.52
2023-04-11T03:10:41.803Z,10.42
2023-04-11T03:11:41.768Z,10.43
2023-04-11T03:12:41.760Z,10.42
2023-04-11T03:13:41.752Z,10.34
2023-04-11T03:14:41.733Z,10.39
2023-04-11T03:15:41.823Z,10.36
2023-04-11T03:16:41.759Z,10.28
2023-04-11T03:17:41.753Z,10.32
2023-04-11T03:18:41.801Z,10.28
2023-04-11T03:19:41.700Z,10.21
2023-04-11T03:20:41.674Z,10.25
2023-04-11T03:21:41.668Z,10.21
2023-04-11T03:22:41.658Z,10.17
2023-04-11T03:23:41.661Z,10.12
2023-04-11T03:24:41.623Z,10.10
2023-04-11T03:25:41.691Z,10.09
2023-04-11T03:26:41.612Z,10.09
2023-04-11T03:27:41.603Z,10.07
2023-04-11T03:28:41.574Z,10.15
2023-04-11T03:29:41.566Z,9.99
2023-04-11T03:30:41.552Z,9.99
2023-04-11T03:31:41.571Z,10.04
2023-04-11T03:32:41.631Z,9.94
2023-04-11T03:33:41.535Z,10.06
2023-04-11T03:34:41.548Z,10.00
2023-04-11T03:35:41.548Z,10.03
2023-04-11T03:36:42.457Z,10.00
2023-04-11T03:37:41.511Z,10.00
2023-04-11T03:38:41.484Z,10.00
2023-04-11T03:39:41.476Z,10.04
2023-04-11T03:40:41.439Z,10.03
2023-04-11T03:41:41.451Z,10.00
2023-04-11T03:42:41.433Z,10.03
2023-04-11T03:43:41.429Z,9.97
2023-04-11T03:44:41.405Z,10.03
2023-04-11T03:45:41.399Z,10.01
2023-04-11T03:46:41.401Z,9.93
2023-04-11T03:47:41.394Z,9.83
2023-04-11T03:48:41.376Z,9.82
2023-04-11T03:49:41.361Z,9.86
2023-04-11T03:50:41.360Z,9.86
2023-04-11T03:51:41.322Z,9.82
2023-04-11T03:52:41.333Z,9.85
2023-04-11T03:53:41.321Z,9.85
2023-04-11T03:54:41.283Z,9.83
2023-04-11T03:55:41.293Z,9.82
2023-04-11T03:56:41.259Z,9.97
2023-04-11T03:57:41.309Z,9.91
2023-04-11T03:58:41.244Z,9.85
2023-04-11T03:59:41.263Z,9.89
2023-04-11T04:00:41.209Z,9.91
2023-04-11T04:01:41.298Z,9.91
2023-04-11T04:02:41.402Z,9.88
2023-04-11T04:03:41.429Z,9.78
2023-04-11T04:04:41.248Z,9.71
2023-04-11T04:05:41.173Z,9.93
2023-04-11T04:06:41.170Z,9.79
2023-04-11T04:07:41.145Z,9.78
2023-04-11T04:08:41.126Z,9.85
2023-04-11T04:09:41.124Z,9.82
2023-04-11T04:10:41.099Z,9.76
2023-04-11T04:11:41.101Z,9.81
2023-04-11T04:12:41.079Z,9.76
2023-04-11T04:13:41.095Z,9.82
2023-04-11T04:14:41.081Z,9.81
2023-04-11T04:15:41.089Z,9.71
2023-04-11T04:16:41.125Z,9.83
2023-04-11T04:17:41.108Z,9.82
2023-04-11T04:18:41.013Z,9.73
2023-04-11T04:19:41.019Z,9.76
2023-04-11T04:20:40.989Z,9.89
2023-04-11T04:21:40.997Z,9.68
2023-04-11T04:22:41.007Z,9.73
2023-04-11T04:23:40.959Z,9.82
2023-04-11T04:24:40.945Z,9.82
2023-04-11T04:25:40.963Z,9.81
2023-04-11T04:26:40.934Z,9.85
2023-04-11T04:27:40.903Z,9.89
2023-04-11T04:28:40.888Z,9.89
2023-04-11T04:29:40.895Z,9.91
2023-04-11T04:30:40.890Z,9.93
2023-04-11T04:31:40.897Z,9.91
2023-04-11T04:32:40.914Z,9.94
2023-04-11T04:33:40.851Z,9.93
2023-04-11T04:34:40.822Z,9.94
2023-04-11T04:35:40.838Z,10.00
2023-04-11T04:36:40.812Z,9.97
2023-04-11T04:37:40.799Z,9.99
2023-04-11T04:38:40.813Z,10.03
2023-04-11T04:39:40.778Z,9.99
2023-04-11T04:40:40.781Z,9.96
2023-04-11T04:41:40.738Z,9.96
2023-04-11T04:42:40.735Z,9.94
2023-04-11T04:43:40.732Z,9.93
2023-04-11T04:44:40.709Z,9.91
2023-04-11T04:45:40.743Z,9.88
2023-04-11T04:46:40.684Z,9.85
2023-04-11T04:47:40.685Z,9.78
2023-04-11T04:48:40.675Z,9.91
2023-04-11T04:49:40.650Z,9.91
2023-04-11T04:50:40.662Z,9.88
2023-04-11T04:51:40.662Z,9.76
2023-04-11T04:52:40.630Z,9.79
2023-04-11T04:53:40.609Z,9.82
2023-04-11T04:54:40.652Z,9.89
2023-04-11T04:55:40.595Z,9.85
2023-04-11T04:56:40.589Z,9.88
2023-04-11T04:57:40.590Z,9.86
2023-04-11T04:58:40.567Z,9.81
2023-04-11T04:59:40.547Z,9.89
2023-04-11T05:00:40.540Z,9.89
2023-04-11T05:01:40.606Z,9.99
2023-04-11T05:02:40.711Z,9.93
2023-04-11T05:03:40.547Z,9.89
2023-04-11T05:04:40.494Z,9.81
2023-04-11T05:05:40.490Z,9.81
2023-04-11T05:06:40.461Z,9.86
2023-04-11T05:07:40.483Z,9.93
2023-04-11T05:08:40.450Z,9.79
2023-04-11T05:09:40.437Z,9.86
2023-04-11T05:10:40.434Z,9.83
2023-04-11T05:11:40.408Z,9.82
2023-04-11T05:12:40.407Z,9.86
2023-04-11T05:13:40.404Z,9.83
2023-04-11T05:14:40.371Z,9.83
2023-04-11T05:15:40.363Z,9.81
2023-04-11T05:16:40.404Z,9.86
2023-04-11T05:17:40.379Z,9.85
2023-04-11T05:18:40.352Z,9.94
2023-04-11T05:19:40.305Z,9.85
2023-04-11T05:20:40.322Z,9.85
2023-04-11T05:21:40.315Z,9.94
2023-04-11T05:22:40.289Z,10.00
2023-04-11T05:23:40.268Z,9.99
2023-04-11T05:24:40.296Z,10.03
2023-04-11T05:25:40.243Z,9.85
2023-04-11T05:26:40.307Z,9.96
2023-04-11T05:27:40.226Z,9.96
2023-04-11T05:28:40.204Z,10.09
2023-04-11T05:29:40.200Z,9.91
2023-04-11T05:30:40.203Z,10.00
2023-04-11T05:31:40.190Z,9.89
2023-04-11T05:32:40.242Z,9.96
2023-04-11T05:33:40.157Z,9.96
2023-04-11T05:34:40.150Z,10.01
2023-04-11T05:35:40.183Z,10.01
2023-04-11T05:36:40.163Z,9.99
2023-04-11T05:37:40.101Z,9.94
2023-04-11T05:38:40.107Z,9.91
2023-04-11T05:39:40.095Z,9.99
2023-04-11T05:40:40.102Z,9.88
2023-04-11T05:41:40.073Z,9.94
2023-04-11T05:42:40.076Z,9.83
2023-04-11T05:43:40.042Z,9.97
2023-04-11T05:44:40.047Z,9.91
2023-04-11T05:45:40.015Z,10.03
2023-04-11T05:46:40.156Z,9.91
2023-04-11T05:47:40.059Z,9.99
2023-04-11T05:48:39.982Z,10.09
2023-04-11T05:49:39.969Z,10.01
2023-04-11T05:50:39.962Z,10.14
2023-04-11T05:51:39.949Z,10.01
2023-04-11T05:52:39.969Z,10.14
2023-04-11T05:53:39.936Z,10.07
2023-04-11T05:54:39.933Z,10.07
2023-04-11T05:55:39.901Z,10.06
2023-04-11T05:56:39.925Z,10.04
2023-04-11T05:57:39.913Z,10.00
2023-04-11T05:58:39.905Z,10.14
2023-04-11T05:59:39.852Z,10.15
2023-04-11T06:00:39.850Z,10.04
2023-04-11T06:01:40.012Z,10.03
2023-04-11T06:02:40.145Z,10.18
2023-04-11T06:03:39.931Z,10.06
2023-04-11T06:04:39.990Z,10.03
2023-04-11T06:05:39.794Z,10.10
2023-04-11T06:06:39.776Z,10.10
2023-04-11T06:07:39.809Z,10.07
2023-04-11T06:08:39.763Z,10.12
2023-04-11T06:09:39.740Z,10.10
2023-04-11T06:10:39.725Z,10.22
2023-04-11T06:11:39.713Z,10.19
2023-04-11T06:12:39.733Z,10.21
2023-04-11T06:13:39.714Z,10.30
2023-04-11T06:14:40.591Z,10.22
2023-04-11T06:15:39.696Z,10.26
2023-04-11T06:16:39.674Z,10.25
2023-04-11T06:17:39.695Z,10.21
2023-04-11T06:18:39.659Z,10.21
2023-04-11T06:19:39.637Z,10.24
2023-04-11T06:20:39.636Z,10.24
2023-04-11T06:21:39.599Z,10.15
2023-04-11T06:22:39.616Z,10.26
2023-04-11T06:23:39.579Z,10.21
2023-04-11T06:24:39.584Z,10.34
2023-04-11T06:25:39.595Z,10.28
2023-04-11T06:26:39.546Z,10.53
2023-04-11T06:27:39.592Z,10.60
2023-04-11T06:28:39.524Z,10.60
2023-04-11T06:29:39.508Z,10.62
2023-04-11T06:30:39.535Z,10.70
2023-04-11T06:31:39.567Z,10.80
2023-04-11T06:32:39.569Z,10.95
2023-04-11T06:33:39.486Z,10.88
2023-04-11T06:34:39.479Z,11.02
2023-04-11T06:35:39.460Z,11.06
2023-04-11T06:36:39.436Z,10.99
2023-04-11T06:37:39.416Z,11.01
2023-04-11T06:38:39.452Z,11.02
2023-04-11T06:39:39.406Z,11.07
2023-04-11T06:40:39.385Z,11.14
2023-04-11T06:41:39.381Z,11.06
2023-04-11T06:42:39.372Z,11.07
2023-04-11T06:43:39.346Z,11.06
2023-04-11T06:44:39.405Z,11.07
2023-04-11T06:45:39.324Z,11.10
2023-04-11T06:46:39.500Z,11.07
2023-04-11T06:47:39.365Z,11.21
2023-04-11T06:48:39.302Z,11.09
2023-04-11T06:49:39.283Z,11.11
2023-04-11T06:50:39.309Z,11.13
2023-04-11T06:51:39.268Z,11.21
2023-04-11T06:52:39.253Z,11.19
2023-04-11T06:53:39.251Z,11.19
2023-04-11T06:54:39.249Z,11.19
2023-04-11T06:55:39.226Z,11.20
2023-04-11T06:56:39.205Z,11.36
2023-04-11T06:57:39.202Z,11.28
2023-04-11T06:58:39.198Z,11.32
2023-04-11T06:59:39.184Z,11.31
2023-04-11T07:00:39.176Z,11.44
2023-04-11T07:01:39.289Z,11.47
2023-04-11T07:02:39.510Z,11.52
2023-04-11T07:03:39.298Z,11.64
2023-04-11T07:04:39.253Z,11.61
2023-04-11T07:05:39.609Z,11.61
2023-04-11T07:06:39.109Z,11.62
2023-04-11T07:07:39.152Z,11.75
2023-04-11T07:08:39.094Z,11.94
2023-04-11T07:09:39.056Z,11.94
2023-04-11T07:10:39.077Z,12.24
2023-04-11T07:11:39.075Z,12.24
2023-04-11T07:12:39.040Z,12.41
2023-04-11T07:13:39.041Z,12.42
2023-04-11T07:14:39.002Z,12.34
2023-04-11T07:15:39.007Z,12.44
2023-04-11T07:16:39.148Z,12.54
2023-04-11T07:17:39.028Z,12.45
2023-04-11T07:18:39.109Z,12.57
2023-04-11T07:19:38.941Z,12.48
2023-04-11T07:20:38.932Z,12.48
2023-04-11T07:21:38.921Z,12.52
2023-04-11T07:22:38.929Z,12.39
2023-04-11T07:23:38.930Z,12.48
2023-04-11T07:24:38.894Z,12.27
2023-04-11T07:25:38.871Z,12.30
2023-04-11T07:26:39.054Z,12.33
2023-04-11T07:27:38.872Z,12.31
2023-04-11T07:28:38.864Z,12.41
2023-04-11T07:29:38.825Z,12.33
2023-04-11T07:30:38.823Z,12.31
2023-04-11T07:31:38.821Z,12.38
2023-04-11T07:32:38.870Z,12.46
2023-04-11T07:33:38.811Z,12.41
2023-04-11T07:34:38.835Z,12.44
2023-04-11T07:35:38.832Z,12.56
2023-04-11T07:36:38.752Z,12.51
2023-04-11T07:37:38.736Z,12.70
2023-04-11T07:38:38.753Z,12.79
2023-04-11T07:39:38.714Z,12.87
2023-04-11T07:40:38.720Z,12.81
2023-04-11T07:41:38.688Z,12.69
2023-04-11T07:42:38.697Z,12.82
2023-04-11T07:43:38.884Z,12.89
2023-04-11T07:44:38.675Z,13.02
2023-04-11T07:45:38.716Z,13.03
2023-04-11T07:46:38.660Z,13.12
2023-04-11T07:47:38.637Z,13.09
2023-04-11T07:48:38.668Z,13.14
2023-04-11T07:49:38.597Z,13.21
2023-04-11T07:50:38.707Z,13.33
2023-04-11T07:51:38.592Z,13.40
2023-04-11T07:52:38.580Z,13.47
2023-04-11T07:53:38.580Z,13.58
2023-04-11T07:54:38.549Z,13.69
2023-04-11T07:55:38.556Z,13.79
2023-04-11T07:56:38.536Z,13.98
2023-04-11T07:57:38.517Z,14.14
2023-04-11T07:58:38.497Z,14.13
2023-04-11T07:59:38.480Z,14.04
2023-04-11T08:00:38.504Z,14.20
2023-04-11T08:01:38.525Z,14.19
2023-04-11T08:02:38.598Z,14.04
2023-04-11T08:03:38.647Z,14.06
2023-04-11T08:04:38.500Z,13.96
2023-04-11T08:05:38.449Z,13.95
2023-04-11T08:06:38.516Z,13.94
2023-04-11T08:07:38.402Z,14.07
2023-04-11T08:08:38.381Z,14.24
2023-04-11T08:09:38.376Z,14.21
2023-04-11T08:10:38.383Z,14.35
2023-04-11T08:11:38.346Z,14.13
2023-04-11T08:12:38.336Z,14.14
2023-04-11T08:13:38.341Z,14.27
2023-04-11T08:14:38.321Z,14.44
2023-04-11T08:15:38.298Z,14.50
2023-04-11T08:16:38.422Z,14.68
2023-04-11T08:17:38.539Z,14.93
2023-04-11T08:18:38.327Z,15.05
2023-04-11T08:19:38.271Z,15.12
2023-04-11T08:20:38.265Z,15.24
2023-04-11T08:21:38.240Z,15.33
2023-04-11T08:22:38.291Z,15.23
2023-04-11T08:23:38.243Z,15.23
2023-04-11T08:24:38.201Z,15.30
2023-04-11T08:25:38.232Z,15.20
2023-04-11T08:26:38.195Z,15.26
2023-04-11T08:27:38.181Z,15.23
2023-04-11T08:28:39.190Z,15.28
2023-04-11T08:29:38.163Z,15.45
2023-04-11T08:30:38.202Z,15.52
2023-04-11T08:31:38.138Z,15.60
2023-04-11T08:32:38.131Z,15.72
2023-04-11T08:33:38.127Z,15.61
2023-04-11T08:34:38.103Z,15.63
2023-04-11T08:35:38.128Z,15.72
2023-04-11T08:36:38.080Z,15.84
2023-04-11T08:37:38.060Z,15.86
2023-04-11T08:38:38.513Z,16.03
2023-04-11T08:39:38.040Z,16.00
2023-04-11T08:40:38.036Z,15.84
2023-04-11T08:41:38.023Z,15.75
2023-04-11T08:42:38.018Z,15.88
2023-04-11T08:43:37.992Z,15.68
2023-04-11T08:44:38.004Z,15.82
2023-04-11T08:45:37.960Z,16.00
2023-04-11T08:46:37.990Z,15.86
2023-04-11T08:47:37.973Z,15.94
2023-04-11T08:48:37.943Z,16.03
2023-04-11T08:49:37.943Z,15.93
2023-04-11T08:50:37.907Z,15.75
2023-04-11T08:51:37.889Z,15.86
2023-04-11T08:52:37.876Z,16.01
2023-04-11T08:53:37.899Z,16.07
2023-04-11T08:54:37.891Z,16.26
2023-04-11T08:55:37.860Z,16.50
2023-04-11T08:56:37.882Z,16.71
2023-04-11T08:57:37.825Z,16.95
2023-04-11T08:58:37.843Z,17.28
2023-04-11T08:59:37.800Z,17.36
2023-04-11T09:00:37.785Z,17.64
2023-04-11T09:01:37.899Z,17.71
2023-04-11T09:02:37.820Z,17.88
2023-04-11T09:03:37.819Z,17.76
2023-04-11T09:04:37.784Z,17.71
2023-04-11T09:05:37.748Z,17.67
2023-04-11T09:06:37.717Z,17.50
2023-04-11T09:07:37.714Z,17.35
2023-04-11T09:08:37.708Z,17.25
2023-04-11T09:09:37.744Z,17.14
2023-04-11T09:10:37.698Z,17.23
2023-04-11T09:11:37.679Z,17.20
2023-04-11T09:12:37.684Z,17.29
2023-04-11T09:13:37.642Z,17.30
2023-04-11T09:14:37.736Z,17.36
2023-04-11T09:15:37.645Z,17.59
2023-04-11T09:16:37.607Z,17.67
2023-04-11T09:17:37.654Z,17.71
2023-04-11T09:18:37.607Z,17.53
2023-04-11T09:19:37.633Z,17.43
2023-04-11T09:20:37.575Z,17.26
2023-04-11T09:21:37.566Z,17.03
2023-04-11T09:22:37.556Z,16.59
2023-04-11T09:23:37.535Z,16.45
2023-04-11T09:24:37.560Z,16.41
2023-04-11T09:25:37.512Z,16.14
2023-04-11T09:26:37.517Z,16.09
2023-04-11T09:27:37.496Z,15.88
2023-04-11T09:28:37.477Z,15.67
2023-04-11T09:29:37.496Z,15.63
2023-04-11T09:30:37.457Z,15.79
2023-04-11T09:31:37.482Z,16.04
2023-04-11T09:32:37.471Z,16.27
2023-04-11T09:33:37.442Z,16.63
2023-04-11T09:34:37.430Z,16.93
2023-04-11T09:35:37.427Z,17.10
2023-04-11T09:36:37.394Z,17.15
2023-04-11T09:37:37.389Z,17.22
2023-04-11T09:38:37.376Z,17.08
2023-04-11T09:39:37.372Z,16.93
2023-04-11T09:40:37.335Z,16.98
2023-04-11T09:41:37.331Z,16.93
2023-04-11T09:42:37.363Z,16.75
2023-04-11T09:43:37.319Z,16.73
2023-04-11T09:44:37.334Z,16.55
2023-04-11T09:45:47.769Z,16.33
2023-04-11T09:46:38.326Z,16.23
2023-04-11T09:47:37.332Z,16.35
2023-04-11T09:48:46.578Z,16.38
2023-04-11T09:49:38.315Z,16.49
2023-04-11T09:50:37.249Z,16.63
2023-04-11T09:51:37.441Z,16.65
2023-04-11T09:52:37.220Z,16.67
2023-04-11T09:53:37.190Z,16.59
2023-04-11T09:54:37.225Z,16.85
2023-04-11T09:55:37.181Z,16.96
2023-04-11T09:56:37.170Z,17.11
2023-04-11T09:57:37.147Z,17.25
2023-04-11T09:58:37.153Z,17.46
2023-04-11T09:59:37.144Z,17.35
2023-04-11T10:00:37.120Z,17.50
2023-04-11T10:01:37.217Z,17.62
2023-04-11T10:02:37.248Z,17.51
2023-04-11T10:03:37.150Z,17.44
2023-04-11T10:04:37.126Z,17.30
2023-04-11T10:05:37.069Z,17.07
2023-04-11T10:06:37.040Z,16.81
2023-04-11T10:07:37.072Z,16.67
2023-04-11T10:08:37.032Z,16.50
2023-04-11T10:09:37.062Z,16.40
2023-04-11T10:10:37.017Z,16.70
2023-04-11T10:11:37.020Z,16.85
2023-04-11T10:12:36.985Z,17.11
2023-04-11T10:13:36.994Z,17.29
2023-04-11T10:14:36.989Z,17.32
2023-04-11T10:15:36.987Z,17.66
2023-04-11T10:16:36.953Z,17.82
2023-04-11T10:17:36.981Z,18.27
2023-04-11T10:18:36.906Z,18.27
2023-04-11T10:19:36.914Z,18.21
2023-04-11T10:20:36.881Z,18.29
2023-04-11T10:21:36.895Z,18.40
2023-04-11T10:22:36.873Z,18.40
2023-04-11T10:23:36.868Z,18.37
2023-04-11T10:24:36.876Z,18.24
2023-04-11T10:25:36.846Z,17.91
2023-04-11T10:26:36.836Z,17.69
2023-04-11T10:27:36.822Z,17.64
2023-04-11T10:28:36.807Z,17.85
2023-04-11T10:29:36.815Z,17.99
2023-04-11T10:30:36.797Z,18.12
2023-04-11T10:31:36.824Z,18.43
2023-04-11T10:32:36.793Z,18.46
2023-04-11T10:33:36.739Z,18.43
2023-04-11T10:34:36.729Z,18.47
2023-04-11T10:35:36.734Z,18.46
2023-04-11T10:36:36.701Z,18.34
2023-04-11T10:37:36.737Z,18.59
2023-04-11T10:38:36.706Z,18.64
2023-04-11T10:39:36.678Z,18.55
2023-04-11T10:40:36.672Z,18.24
2023-04-11T10:41:36.665Z,17.94
2023-04-11T10:42:36.666Z,17.67
2023-04-11T10:43:39.098Z,17.70
2023-04-11T10:44:36.644Z,17.64
2023-04-11T10:45:36.606Z,17.66
2023-04-11T10:46:37.224Z,17.62
2023-04-11T10:47:36.637Z,17.43
2023-04-11T10:48:36.691Z,17.20
2023-04-11T10:49:36.660Z,17.11
2023-04-11T10:50:36.561Z,17.10
2023-04-11T10:51:36.583Z,16.98
2023-04-11T10:52:36.535Z,16.99
2023-04-11T10:53:36.569Z,17.11
2023-04-11T10:54:36.515Z,17.17
2023-04-11T10:55:36.496Z,17.30
2023-04-11T10:56:36.499Z,17.44
2023-04-11T10:57:36.483Z,17.46
2023-04-11T10:58:36.458Z,17.64
2023-04-11T10:59:36.490Z,17.76
2023-04-11T11:00:36.445Z,18.06
2023-04-11T11:01:42.992Z,18.09
2023-04-11T11:02:37.547Z,18.50
2023-04-11T11:03:36.587Z,18.44
2023-04-11T11:04:36.596Z,18.61
2023-04-11T11:05:36.384Z,18.49
2023-04-11T11:06:46.158Z,18.54
2023-04-11T11:07:37.359Z,18.54
2023-04-11T11:08:36.368Z,18.59
2023-04-11T11:09:36.395Z,18.72
2023-04-11T11:10:36.342Z,18.73
2023-04-11T11:11:36.322Z,18.77
2023-04-11T11:12:36.313Z,18.83
2023-04-11T11:13:36.307Z,18.90
2023-04-11T11:14:36.318Z,19.02
2023-04-11T11:15:36.270Z,19.05
2023-04-11T11:16:36.309Z,19.17
2023-04-11T11:17:36.263Z,19.17
2023-04-11T11:18:36.309Z,19.15
2023-04-11T11:19:36.228Z,19.13
2023-04-11T11:20:36.261Z,19.05
2023-04-11T11:21:36.215Z,18.97
2023-04-11T11:22:36.186Z,18.82
2023-04-11T11:23:36.474Z,18.54
2023-04-11T11:24:36.190Z,18.13
2023-04-11T11:25:36.203Z,18.00
2023-04-11T11:26:36.142Z,17.94
2023-04-11T11:27:36.137Z,18.03
2023-04-11T11:28:36.140Z,18.00
2023-04-11T11:29:36.125Z,17.89
2023-04-11T11:30:36.105Z,18.04
2023-04-11T11:31:36.147Z,18.03
2023-04-11T11:32:36.113Z,17.97
2023-04-11T11:33:36.071Z,18.09
2023-04-11T11:34:36.099Z,18.15
2023-04-11T11:35:36.063Z,18.27
2023-04-11T11:36:36.039Z,18.19
2023-04-11T11:37:36.025Z,18.36
2023-04-11T11:38:36.010Z,18.37
2023-04-11T11:39:36.012Z,18.29
2023-04-11T11:40:35.993Z,18.31
2023-04-11T11:41:35.992Z,18.33
2023-04-11T11:42:35.960Z,18.37
2023-04-11T11:43:35.962Z,18.39
2023-04-11T11:44:35.966Z,18.50
2023-04-11T11:45:35.991Z,18.52
2023-04-11T11:46:35.965Z,18.54
2023-04-11T11:47:35.991Z,18.64
2023-04-11T11:48:35.910Z,18.44
2023-04-11T11:49:35.931Z,18.34
2023-04-11T11:50:35.936Z,18.33
2023-04-11T11:51:35.878Z,18.36
2023-04-11T11:52:35.874Z,18.33
2023-04-11T11:53:35.873Z,18.33
2023-04-11T11:54:35.845Z,18.33
2023-04-11T11:55:35.832Z,18.37
2023-04-11T11:56:35.806Z,18.43
2023-04-11T11:57:35.819Z,18.67
2023-04-11T11:58:35.782Z,18.74
2023-04-11T11:59:35.789Z,18.91
2023-04-11T12:00:35.761Z,18.97
2023-04-11T12:01:35.769Z,19.05
2023-04-11T12:02:35.946Z,18.92
2023-04-11T12:03:35.893Z,18.80
2023-04-11T12:04:35.886Z,18.65
2023-04-11T12:05:35.789Z,18.47
2023-04-11T12:06:35.729Z,18.47
2023-04-11T12:07:35.709Z,18.40
2023-04-11T12:08:35.683Z,18.19
2023-04-11T12:09:35.685Z,18.09
2023-04-11T12:10:35.658Z,18.12
2023-04-11T12:11:35.656Z,18.06
2023-04-11T12:12:35.626Z,18.18
2023-04-11T12:13:35.618Z,18.36
2023-04-11T12:14:35.603Z,18.43
2023-04-11T12:15:35.657Z,18.64
2023-04-11T12:16:35.615Z,18.70
2023-04-11T12:17:37.631Z,18.73
2023-04-11T12:18:35.569Z,18.90
2023-04-11T12:19:35.549Z,19.01
2023-04-11T12:20:35.580Z,19.05
2023-04-11T12:21:35.540Z,19.13
2023-04-11T12:22:35.585Z,19.08
2023-04-11T12:23:35.516Z,19.10
2023-04-11T12:24:35.524Z,19.10
2023-04-11T12:25:35.507Z,19.15
2023-04-11T12:26:35.472Z,19.18
2023-04-11T12:27:35.472Z,19.25
2023-04-11T12:28:35.452Z,19.31
2023-04-11T12:29:35.434Z,19.38
2023-04-11T12:30:35.451Z,19.36
2023-04-11T12:31:35.451Z,19.42
2023-04-11T12:32:35.484Z,19.36
2023-04-11T12:33:35.390Z,19.36
2023-04-11T12:34:35.392Z,19.39
2023-04-11T12:35:35.400Z,19.40
2023-04-11T12:36:35.367Z,19.48
2023-04-11T12:37:35.355Z,19.38
2023-04-11T12:38:35.423Z,19.33
2023-04-11T12:39:35.347Z,19.50
2023-04-11T12:40:35.374Z,19.51
2023-04-11T12:41:35.312Z,19.66
2023-04-11T12:42:36.838Z,19.63
2023-04-11T12:43:36.299Z,19.51
2023-04-11T12:44:35.262Z,19.51
2023-04-11T12:45:35.270Z,19.14
2023-04-11T12:46:35.250Z,18.77
2023-04-11T12:47:35.301Z,18.83
2023-04-11T12:48:35.216Z,18.62
2023-04-11T12:49:35.223Z,18.42
2023-04-11T12:50:35.253Z,18.40
2023-04-11T12:51:35.188Z,18.33
2023-04-11T12:52:35.172Z,18.13
2023-04-11T12:53:35.166Z,18.09
2023-04-11T12:54:35.178Z,17.87
2023-04-11T12:55:35.202Z,17.74
2023-04-11T12:56:35.142Z,17.67